Terminal Aerodrome Forecast
Issued by NWS Shreveport, LA

Home | Current Version | Previous Version | Text Only | Print | Product List | Glossary On
Versions: 1 2 3 4 5 6 7 8 9 10 11 12 13 14 15 16
000
FTUS44 KSHV 011900 AAA
TAFELD
TAF AMD
KELD 011925Z 0119/0218 31012G18KT P6SM VCTS SCT010CB OVC070
     FM012000 31014G22KT P6SM SCT015 OVC030
      TEMPO 0120/0123 OVC015
     FM012300 31015G25KT P6SM SCT020 BKN080
     FM020300 33012G20KT P6SM SKC
     FM021300 35008KT P6SM SKC=

USA.gov is the U.S. government's official web portal to all federal, state and local government web resources and services.